createdAt,value
2023-05-10T00:00:39.755Z,0.17
2023-05-10T00:03:39.858Z,0.13
2023-05-10T00:06:39.740Z,0.34
2023-05-10T00:09:39.694Z,0.45
2023-05-10T00:12:39.780Z,0.23
2023-05-10T00:15:39.672Z,0.24
2023-05-10T00:18:39.720Z,0.1
2023-05-10T00:21:39.778Z,0.13
2023-05-10T00:24:39.749Z,0.34
2023-05-10T00:27:39.684Z,0.27
2023-05-10T00:30:39.665Z,0.37
2023-05-10T00:33:39.866Z,0.29
2023-05-10T00:36:39.771Z,0.28
2023-05-10T00:39:39.818Z,0.36
2023-05-10T00:42:39.795Z,0.14
2023-05-10T00:45:39.820Z,0.21
2023-05-10T00:48:39.781Z,0.36
2023-05-10T00:51:39.773Z,0.57
2023-05-10T00:54:39.764Z,0.67
2023-05-10T00:57:39.776Z,0.69
2023-05-10T01:00:39.838Z,0.5
2023-05-10T01:03:39.817Z,0.9
2023-05-10T01:12:47.346Z,0.58
2023-05-10T01:15:41.760Z,0.94
2023-05-10T01:18:39.792Z,0.76
2023-05-10T01:21:39.833Z,0.63
2023-05-10T01:24:39.829Z,0.52
2023-05-10T01:27:39.810Z,0.56
2023-05-10T01:30:39.765Z,0.55
2023-05-10T01:33:39.851Z,0.85
2023-05-10T01:36:39.836Z,0.79
2023-05-10T01:39:39.828Z,1.01
2023-05-10T01:42:39.773Z,1.08
2023-05-10T01:45:39.767Z,1.01
2023-05-10T01:48:39.778Z,1.13
2023-05-10T01:51:39.750Z,1.16
2023-05-10T01:54:39.858Z,1.15
2023-05-10T01:57:39.751Z,1.01
2023-05-10T02:00:39.831Z,1.17
2023-05-10T02:03:39.858Z,1.27
2023-05-10T02:06:39.863Z,1.14
2023-05-10T02:09:39.869Z,1.1
2023-05-10T02:12:39.777Z,1.2
2023-05-10T02:15:39.795Z,1.33
2023-05-10T02:18:39.852Z,1.22
2023-05-10T02:21:39.834Z,1.57
2023-05-10T02:24:39.803Z,1.16
2023-05-10T02:27:39.886Z,1.06
2023-05-10T02:30:39.826Z,1.63
2023-05-10T02:33:39.798Z,1.51
2023-05-10T02:36:39.844Z,1.41
2023-05-10T02:39:39.809Z,1.51
2023-05-10T02:42:39.813Z,1.26
2023-05-10T02:45:39.891Z,1.11
2023-05-10T02:48:39.788Z,1.29
2023-05-10T02:51:39.910Z,1.13
2023-05-10T02:54:39.822Z,1.27
2023-05-10T02:57:39.903Z,1.29
2023-05-10T03:00:39.821Z,0.85
2023-05-10T03:03:39.935Z,1.38
2023-05-10T03:06:39.863Z,1.83
2023-05-10T03:09:39.933Z,2
2023-05-10T03:12:39.852Z,0.94
2023-05-10T03:15:39.942Z,1.55
2023-05-10T03:18:39.879Z,0.96
2023-05-10T03:21:39.933Z,1.03
2023-05-10T03:24:39.822Z,1.14
2023-05-10T03:27:39.929Z,1.08
2023-05-10T03:30:39.844Z,0.91
2023-05-10T03:33:39.874Z,1.3
2023-05-10T03:36:39.950Z,0.86
2023-05-10T03:39:39.892Z,1.02
2023-05-10T03:42:39.974Z,1.32
2023-05-10T03:45:39.916Z,1.37
2023-05-10T03:48:39.956Z,1.32
2023-05-10T03:51:39.914Z,1.17
2023-05-10T03:54:39.996Z,1.24
2023-05-10T03:57:39.935Z,1.06
2023-05-10T04:00:39.896Z,1.19
2023-05-10T04:03:40.044Z,1.21
2023-05-10T04:06:39.951Z,1.59
2023-05-10T04:09:39.985Z,0.97
2023-05-10T04:12:40.004Z,1.43
2023-05-10T04:15:39.898Z,1
2023-05-10T04:18:39.913Z,1.04
2023-05-10T04:21:39.987Z,1
2023-05-10T04:24:40.045Z,1.02
2023-05-10T04:27:39.908Z,1.13
2023-05-10T04:30:39.947Z,0.73
2023-05-10T04:33:39.998Z,0.88
2023-05-10T04:36:39.972Z,0.94
2023-05-10T04:39:42.140Z,0.87
2023-05-10T04:42:40.001Z,0.86
2023-05-10T04:45:39.993Z,0.74
2023-05-10T04:48:39.946Z,0.91
2023-05-10T04:51:39.994Z,1
2023-05-10T04:54:39.993Z,1.34
2023-05-10T04:57:40.001Z,0.96
2023-05-10T05:00:39.968Z,0.9
2023-05-10T05:03:39.990Z,0.72
2023-05-10T05:06:39.934Z,0.76
2023-05-10T05:09:40.046Z,0.85
2023-05-10T05:12:40.014Z,0.84
2023-05-10T05:15:39.997Z,0.78
2023-05-10T05:18:39.978Z,0.91
2023-05-10T05:21:39.942Z,0.85
2023-05-10T05:24:40.060Z,1.06
2023-05-10T05:27:40.178Z,1.24
2023-05-10T05:30:40.016Z,0.98
2023-05-10T05:33:39.988Z,0.66
2023-05-10T05:36:40.026Z,1.53
2023-05-10T05:39:40.065Z,1.22
2023-05-10T05:42:40.063Z,0.8
2023-05-10T05:45:40.046Z,0.99
2023-05-10T05:48:40.000Z,0.92
2023-05-10T05:51:40.048Z,1.16
2023-05-10T05:54:40.111Z,1.67
2023-05-10T05:57:40.074Z,1.04
2023-05-10T06:00:40.060Z,1.45
2023-05-10T06:03:40.087Z,1.43
2023-05-10T06:06:40.006Z,1.49
2023-05-10T06:09:40.141Z,1.5
2023-05-10T06:12:40.068Z,1.48
2023-05-10T06:15:40.008Z,1.45
2023-05-10T06:18:40.023Z,1.56
2023-05-10T06:21:40.001Z,1.59
2023-05-10T06:24:40.131Z,1.38
2023-05-10T06:27:40.084Z,1.57
2023-05-10T06:30:40.051Z,1.21
2023-05-10T06:33:40.058Z,1.44
2023-05-10T06:36:40.052Z,1.38
2023-05-10T06:39:40.065Z,1.19
2023-05-10T06:42:40.091Z,1.62
2023-05-10T06:45:40.097Z,1.34
2023-05-10T06:48:40.134Z,0.89
2023-05-10T06:51:40.145Z,1.19
2023-05-10T06:54:40.127Z,1.27
2023-05-10T06:57:40.127Z,1.12
2023-05-10T07:00:40.146Z,1.6
2023-05-10T07:03:40.148Z,1.5
2023-05-10T07:06:40.067Z,1.63
2023-05-10T07:09:40.078Z,1.45
2023-05-10T07:12:40.199Z,1.56
2023-05-10T07:15:40.074Z,1.2
2023-05-10T07:18:40.117Z,1.39
2023-05-10T07:21:40.161Z,1.51
2023-05-10T07:24:40.150Z,1.69
2023-05-10T07:27:40.091Z,1.41
2023-05-10T07:30:40.177Z,1.15
2023-05-10T07:33:40.094Z,1.22
2023-05-10T07:36:40.158Z,1.35
2023-05-10T07:39:40.128Z,1.22
2023-05-10T07:42:40.089Z,1.3
2023-05-10T07:45:40.155Z,0.93
2023-05-10T07:48:40.122Z,0.59
2023-05-10T07:51:40.168Z,0.93
2023-05-10T07:54:40.207Z,1.13
2023-05-10T07:57:40.094Z,0.97
2023-05-10T08:00:40.107Z,0.84
2023-05-10T08:03:40.219Z,0.97
2023-05-10T08:06:40.161Z,0.79
2023-05-10T08:09:40.093Z,1.23
2023-05-10T08:12:40.190Z,0.82
2023-05-10T08:15:40.188Z,0.97
2023-05-10T08:18:40.224Z,0.95
2023-05-10T08:21:40.205Z,0.91
2023-05-10T08:24:40.150Z,1.02
2023-05-10T08:27:40.186Z,1.19
2023-05-10T08:30:40.129Z,1.19
2023-05-10T08:33:41.499Z,1.03
2023-05-10T08:36:40.141Z,1.61
2023-05-10T08:39:40.147Z,1.21
2023-05-10T08:42:40.226Z,1.16
2023-05-10T08:45:40.232Z,1.58
2023-05-10T08:48:40.220Z,1.05
2023-05-10T08:51:40.903Z,0.73
2023-05-10T08:54:40.245Z,1.29
2023-05-10T08:57:40.215Z,0.75
2023-05-10T09:00:40.234Z,0.82
2023-05-10T09:03:40.225Z,0.95
2023-05-10T09:06:40.226Z,0.39
2023-05-10T09:09:40.186Z,0.7
2023-05-10T09:12:40.164Z,0.68
2023-05-10T09:15:40.219Z,0.86
2023-05-10T09:18:40.502Z,0.84
2023-05-10T09:21:40.244Z,0.82
2023-05-10T09:24:40.272Z,0.83
2023-05-10T09:27:40.161Z,1.19
2023-05-10T09:30:40.306Z,1.14
2023-05-10T09:33:40.259Z,1.22
2023-05-10T09:36:40.266Z,1.07
2023-05-10T09:39:40.277Z,1.2
2023-05-10T09:42:40.171Z,0.82
2023-05-10T09:45:40.211Z,0.75
2023-05-10T09:48:40.198Z,0.62
2023-05-10T09:51:40.225Z,1.03
2023-05-10T09:54:40.209Z,0.89
2023-05-10T09:57:40.209Z,1.12
2023-05-10T10:00:40.300Z,1.12
2023-05-10T10:03:40.321Z,0.63
2023-05-10T10:06:40.285Z,1.07
2023-05-10T10:09:40.278Z,0.81
2023-05-10T10:12:40.234Z,0.82
2023-05-10T10:15:40.287Z,1.17
2023-05-10T10:18:40.224Z,1.32
2023-05-10T10:21:40.333Z,1.54
2023-05-10T10:24:40.293Z,1.37
2023-05-10T10:27:40.263Z,1.54
2023-05-10T10:30:40.321Z,0.91
2023-05-10T10:33:40.402Z,1.24
2023-05-10T10:36:40.281Z,1.18
2023-05-10T10:39:40.307Z,1.14
2023-05-10T10:42:40.321Z,0.8
2023-05-10T10:45:41.913Z,0.87
2023-05-10T10:48:40.344Z,1.35
2023-05-10T10:51:40.276Z,1.09
2023-05-10T10:54:40.293Z,1.09
2023-05-10T10:57:40.273Z,1.23
2023-05-10T11:00:40.352Z,1.45
2023-05-10T11:03:40.253Z,1.31
2023-05-10T11:06:40.391Z,1.24
2023-05-10T11:09:40.361Z,1.16
2023-05-10T11:12:40.317Z,1.17
2023-05-10T11:15:40.268Z,1.21
2023-05-10T11:18:40.347Z,0.99
2023-05-10T11:21:40.354Z,1.1
2023-05-10T11:24:40.288Z,1.08
2023-05-10T11:27:40.362Z,1.32
2023-05-10T11:30:40.300Z,1.24
2023-05-10T11:33:40.371Z,1.13
2023-05-10T11:36:40.344Z,1.23
2023-05-10T11:39:40.321Z,1.19
2023-05-10T11:42:40.357Z,1.16
2023-05-10T11:45:40.328Z,1.17
2023-05-10T11:48:40.373Z,1.03
2023-05-10T11:51:40.432Z,1.25
2023-05-10T11:54:40.384Z,1.06
2023-05-10T11:57:40.306Z,1.23
2023-05-10T12:00:40.350Z,1.27
2023-05-10T12:03:40.486Z,1.1
2023-05-10T12:06:40.334Z,1.07
2023-05-10T12:09:43.995Z,1.32
2023-05-10T12:12:40.322Z,1.91
2023-05-10T12:15:40.330Z,1.38
2023-05-10T12:18:42.974Z,1.41
2023-05-10T12:21:40.416Z,1.38
2023-05-10T12:24:40.421Z,1.46
2023-05-10T12:27:40.328Z,1.65
2023-05-10T12:30:40.563Z,1.34
2023-05-10T12:33:40.408Z,1.62
2023-05-10T12:36:40.379Z,1.32
2023-05-10T12:39:40.430Z,1.83
2023-05-10T12:42:40.384Z,1.83
2023-05-10T12:45:40.410Z,1.84
2023-05-10T12:48:40.490Z,1.69
2023-05-10T12:51:40.478Z,1.52
2023-05-10T12:54:40.360Z,1.67
2023-05-10T12:57:40.376Z,1.36
2023-05-10T13:00:40.370Z,1.15
2023-05-10T13:03:40.508Z,0.96
2023-05-10T13:06:40.394Z,0.93
2023-05-10T13:09:40.399Z,0.82
2023-05-10T13:12:41.484Z,1.04
2023-05-10T13:15:40.434Z,1.02
2023-05-10T13:18:40.474Z,0.87
2023-05-10T13:21:40.410Z,1.06
2023-05-10T13:24:40.510Z,1.05
2023-05-10T13:27:40.471Z,1.26
2023-05-10T13:30:40.515Z,0.89
2023-05-10T13:33:40.406Z,0.63
2023-05-10T13:36:40.467Z,1.05
2023-05-10T13:39:40.437Z,1.27
2023-05-10T13:42:40.486Z,0.87
2023-05-10T13:45:40.490Z,0.74
2023-05-10T13:48:40.415Z,0.6
2023-05-10T13:51:40.430Z,1.14
2023-05-10T13:54:40.508Z,1.02
2023-05-10T13:57:40.485Z,1.2
2023-05-10T14:00:40.448Z,1.2
2023-05-10T14:03:40.609Z,1.55
2023-05-10T14:06:40.440Z,1
2023-05-10T14:09:40.517Z,1.09
2023-05-10T14:12:40.437Z,0.88
2023-05-10T14:15:40.447Z,0.95
2023-05-10T14:18:40.523Z,1.3
2023-05-10T14:21:40.473Z,1.03
2023-05-10T14:24:40.504Z,0.78
2023-05-10T14:27:40.540Z,1.16
2023-05-10T14:30:40.532Z,0.71
2023-05-10T14:33:40.559Z,0.64
2023-05-10T14:36:40.588Z,0.63
2023-05-10T14:39:40.547Z,0.75
2023-05-10T14:42:40.534Z,0.69
2023-05-10T14:45:40.476Z,0.79
2023-05-10T14:48:40.510Z,0.69
2023-05-10T14:51:40.464Z,1.05
2023-05-10T14:54:40.529Z,0.92
2023-05-10T14:57:40.556Z,0.57
2023-05-10T15:00:40.518Z,0.77
2023-05-10T15:03:40.617Z,1.04
2023-05-10T15:06:40.467Z,0.98
2023-05-10T15:09:40.558Z,0.99
2023-05-10T15:12:40.616Z,0.85
2023-05-10T15:15:40.585Z,0.87
2023-05-10T15:18:40.630Z,0.82
2023-05-10T15:21:40.554Z,0.78
2023-05-10T15:24:40.859Z,0.74
2023-05-10T15:27:40.533Z,0.95
2023-05-10T15:30:40.558Z,0.91
2023-05-10T15:33:40.515Z,0.5
2023-05-10T15:36:40.575Z,0.66
2023-05-10T15:39:40.538Z,0.8
2023-05-10T15:42:40.584Z,0.87
2023-05-10T15:45:40.644Z,0.75
2023-05-10T15:48:40.582Z,0.59
2023-05-10T15:51:40.543Z,0.81
2023-05-10T15:54:40.561Z,0.69
2023-05-10T15:57:40.613Z,0.7
2023-05-10T16:00:40.705Z,0.75
2023-05-10T16:03:40.643Z,1.01
2023-05-10T16:06:40.578Z,1
2023-05-10T16:09:40.587Z,0.81
2023-05-10T16:12:40.615Z,0.98
2023-05-10T16:15:40.636Z,0.51
2023-05-10T16:18:40.678Z,0.82
2023-05-10T16:21:40.646Z,0.93
2023-05-10T16:24:40.596Z,0.7
2023-05-10T16:27:40.889Z,0.58
2023-05-10T16:30:40.701Z,0.68
2023-05-10T16:33:40.618Z,0.72
2023-05-10T16:36:40.670Z,0.63
2023-05-10T16:39:40.658Z,0.63
2023-05-10T16:42:40.601Z,0.75
2023-05-10T16:45:40.715Z,0.5
2023-05-10T16:48:40.572Z,0.61
2023-05-10T16:51:40.596Z,0.44
2023-05-10T16:54:40.637Z,0.23
2023-05-10T16:57:40.594Z,0.43
2023-05-10T17:00:40.615Z,0.19
2023-05-10T17:03:40.672Z,0.17
2023-05-10T17:06:40.696Z,0.28
2023-05-10T17:09:40.609Z,0.05
2023-05-10T17:12:40.637Z,0.33
2023-05-10T17:15:40.994Z,0.3
2023-05-10T17:18:40.708Z,0.48
2023-05-10T17:21:40.635Z,0.41
2023-05-10T17:24:40.686Z,0.34
2023-05-10T17:27:40.713Z,0.16
2023-05-10T17:30:40.638Z,0.09
2023-05-10T17:33:40.633Z,0.22
2023-05-10T17:36:40.711Z,0.49
2023-05-10T17:39:40.783Z,0.21
2023-05-10T17:42:40.779Z,0.32
2023-05-10T17:45:40.713Z,0.22
2023-05-10T17:48:40.702Z,0.26
2023-05-10T17:51:40.730Z,0.32
2023-05-10T17:54:40.687Z,0.35
2023-05-10T17:57:40.674Z,0.3
2023-05-10T18:00:40.702Z,0.13
2023-05-10T18:03:40.673Z,0.15
2023-05-10T18:06:40.769Z,0.24
2023-05-10T18:09:40.701Z,0.19
2023-05-10T18:12:40.785Z,0.53
2023-05-10T18:15:40.798Z,0.24
2023-05-10T18:18:40.823Z,0.15
2023-05-10T18:21:40.728Z,0.29
2023-05-10T18:24:40.824Z,0.28
2023-05-10T18:27:40.699Z,0.33
2023-05-10T18:30:40.821Z,0.16
2023-05-10T18:33:40.794Z,0.22
2023-05-10T18:36:40.810Z,0.18
2023-05-10T18:39:40.858Z,0.14
2023-05-10T18:42:40.718Z,0.14
2023-05-10T18:45:40.707Z,0.23
2023-05-10T18:48:40.780Z,0.29
2023-05-10T18:51:40.793Z,0.16
2023-05-10T18:54:40.881Z,0.13
2023-05-10T18:57:40.688Z,0.25
2023-05-10T19:00:40.750Z,0.32
2023-05-10T19:03:40.755Z,0.24
2023-05-10T19:06:40.796Z,0.49
2023-05-10T19:09:40.785Z,0.26
2023-05-10T19:12:40.792Z,0.17
2023-05-10T19:15:40.796Z,0.4
2023-05-10T19:18:40.839Z,0.23
2023-05-10T19:21:40.882Z,0.53
2023-05-10T19:24:40.858Z,0.49
2023-05-10T19:27:40.830Z,0.33
2023-05-10T19:30:40.855Z,0.34
2023-05-10T19:33:40.881Z,0.42
2023-05-10T19:36:40.743Z,0.57
2023-05-10T19:39:40.758Z,0.52
2023-05-10T19:42:40.830Z,0.38
2023-05-10T19:45:40.871Z,0.44
2023-05-10T19:48:40.816Z,0.37
2023-05-10T19:51:40.849Z,0.35
2023-05-10T19:54:40.869Z,0.39
2023-05-10T19:57:40.797Z,0.35
2023-05-10T20:00:40.873Z,0.32
2023-05-10T20:03:40.880Z,0.29
2023-05-10T20:06:40.861Z,0.49
2023-05-10T20:09:40.786Z,0.51
2023-05-10T20:12:40.880Z,0.66
2023-05-10T20:15:40.803Z,0.57
2023-05-10T20:18:40.901Z,0.56
2023-05-10T20:21:40.875Z,0.56
2023-05-10T20:24:40.891Z,0.57
2023-05-10T20:27:40.804Z,0.49
2023-05-10T20:30:40.871Z,0.49
2023-05-10T20:33:40.858Z,0.51
2023-05-10T20:36:40.817Z,0.62
2023-05-10T20:39:40.850Z,0.49
2023-05-10T20:42:40.833Z,0.58
2023-05-10T20:45:40.877Z,0.51
2023-05-10T20:48:40.915Z,0.61
2023-05-10T20:51:40.887Z,0.53
2023-05-10T20:54:40.860Z,0.53
2023-05-10T20:57:40.883Z,0.58
2023-05-10T21:00:40.862Z,0.71
2023-05-10T21:03:40.889Z,0.65
2023-05-10T21:06:43.843Z,0.51
2023-05-10T21:09:40.918Z,0.48
2023-05-10T21:12:40.865Z,0.45
2023-05-10T21:15:40.880Z,0.52
2023-05-10T21:18:40.854Z,0.51
2023-05-10T21:21:40.818Z,0.46
2023-05-10T21:24:40.920Z,0.41
2023-05-10T21:27:40.910Z,0.28
2023-05-10T21:30:40.817Z,0.17
2023-05-10T21:33:40.889Z,0.09
2023-05-10T21:36:40.946Z,0.08
2023-05-10T21:39:40.869Z,0.21
2023-05-10T21:42:40.964Z,0.02
2023-05-10T21:45:40.892Z,0.19
2023-05-10T21:48:40.890Z,0.16
2023-05-10T21:51:41.007Z,0.21
2023-05-10T21:54:40.857Z,0.13
2023-05-10T21:57:40.885Z,0.21
2023-05-10T22:00:40.944Z,0.1
2023-05-10T22:03:41.010Z,0.04
2023-05-10T22:06:40.894Z,0.19
2023-05-10T22:09:40.888Z,0.29
2023-05-10T22:12:40.880Z,0.36
2023-05-10T22:15:40.915Z,0.22
2023-05-10T22:18:41.030Z,0.24
2023-05-10T22:21:40.953Z,0.24
2023-05-10T22:24:40.981Z,0.29
2023-05-10T22:27:40.918Z,0.25
2023-05-10T22:30:40.956Z,0.13
2023-05-10T22:33:41.022Z,0.32
2023-05-10T22:36:40.877Z,0.41
2023-05-10T22:39:40.912Z,0.27
2023-05-10T22:42:40.990Z,0.39
2023-05-10T22:45:41.009Z,0.22
2023-05-10T22:48:40.980Z,0.36
2023-05-10T22:51:40.938Z,0.6
2023-05-10T22:54:40.902Z,0.54
2023-05-10T22:57:40.940Z,0.36
2023-05-10T23:00:40.933Z,0.19
2023-05-10T23:03:40.918Z,0.22
2023-05-10T23:06:40.981Z,0.22
2023-05-10T23:09:41.018Z,0.3
2023-05-10T23:12:41.054Z,0.31
2023-05-10T23:15:40.972Z,0.39
2023-05-10T23:18:41.083Z,0.42
2023-05-10T23:21:41.045Z,0.59
2023-05-10T23:24:41.025Z,0.35
2023-05-10T23:27:41.006Z,0.36
2023-05-10T23:30:41.062Z,0.36
2023-05-10T23:33:40.938Z,0.37
2023-05-10T23:36:40.957Z,0.49
2023-05-10T23:39:41.057Z,0.47
2023-05-10T23:42:41.058Z,0.48
2023-05-10T23:45:40.963Z,0.52
2023-05-10T23:48:40.966Z,0.51
2023-05-10T23:51:41.049Z,0.57
2023-05-10T23:54:40.970Z,0.45
2023-05-10T23:57:41.072Z,0.54
